createdAt,value
2023-05-08T00:02:22.660Z,8.59
2023-05-08T00:06:27.072Z,8.61
2023-05-08T00:10:30.791Z,8.60
2023-05-08T00:14:33.781Z,8.49
2023-05-08T00:18:38.756Z,8.40
2023-05-08T00:22:41.747Z,8.32
2023-05-08T00:26:45.791Z,8.30
2023-05-08T00:30:48.818Z,8.26
2023-05-08T00:34:53.292Z,8.23
2023-05-08T00:38:56.265Z,8.22
2023-05-08T00:42:59.453Z,8.20
2023-05-08T00:47:02.735Z,8.13
2023-05-08T00:51:09.561Z,8.09
2023-05-08T00:55:13.539Z,8.07
2023-05-08T00:59:18.569Z,8.06
2023-05-08T01:03:22.162Z,8.06
2023-05-08T01:07:27.243Z,8.08
2023-05-08T01:11:38.188Z,8.07
2023-05-08T01:15:48.589Z,8.03
2023-05-08T01:20:06.850Z,8.00
2023-05-08T01:24:33.980Z,7.95
2023-05-08T01:29:27.748Z,7.89
2023-05-08T01:33:38.000Z,7.86
2023-05-08T01:37:51.146Z,7.79
2023-05-08T01:42:01.792Z,7.78
2023-05-08T01:46:18.024Z,7.79
2023-05-08T01:50:27.170Z,7.72
2023-05-08T01:54:37.231Z,7.69
2023-05-08T01:58:44.184Z,7.71
2023-05-08T02:02:48.902Z,7.71
2023-05-08T02:06:53.906Z,7.73
2023-05-08T02:10:59.048Z,7.72
2023-05-08T02:15:03.295Z,7.74
2023-05-08T02:19:08.727Z,7.71
2023-05-08T02:23:14.674Z,7.66
2023-05-08T02:27:18.507Z,7.59
2023-05-08T02:31:22.883Z,7.56
2023-05-08T02:35:27.398Z,7.53
2023-05-08T02:39:35.217Z,7.49
2023-05-08T02:43:39.473Z,7.43
2023-05-08T02:47:49.580Z,7.41
2023-05-08T02:51:58.748Z,7.41
2023-05-08T02:56:11.401Z,7.34
2023-05-08T03:00:18.440Z,7.28
2023-05-08T03:04:28.175Z,7.24
2023-05-08T03:08:35.431Z,7.23
2023-05-08T03:12:44.214Z,7.22
2023-05-08T03:16:51.337Z,7.19
2023-05-08T03:20:59.116Z,7.19
2023-05-08T03:25:05.535Z,7.18
2023-05-08T03:29:15.785Z,7.15
2023-05-08T03:33:20.415Z,7.13
2023-05-08T03:37:23.714Z,7.05
2023-05-08T03:41:27.636Z,7.05
2023-05-08T03:45:36.882Z,7.03
2023-05-08T03:49:41.308Z,7.02
2023-05-08T03:53:45.133Z,6.99
2023-05-08T03:57:57.196Z,6.95
2023-05-08T04:02:16.714Z,6.95
2023-05-08T04:06:35.736Z,6.95
2023-05-08T04:10:52.053Z,6.93
2023-05-08T04:15:01.458Z,6.94
2023-05-08T04:19:12.017Z,6.91
2023-05-08T04:23:19.996Z,6.90
2023-05-08T04:27:25.149Z,6.90
2023-05-08T04:31:30.207Z,6.91
2023-05-08T04:35:35.233Z,6.92
2023-05-08T04:39:39.227Z,6.89
2023-05-08T04:43:43.387Z,6.90
2023-05-08T04:47:46.769Z,6.93
2023-05-08T04:51:51.826Z,6.97
2023-05-08T04:55:54.977Z,6.98
2023-05-08T04:59:58.559Z,6.99
2023-05-08T05:04:01.710Z,6.98
2023-05-08T05:08:06.614Z,7.03
2023-05-08T05:12:09.874Z,7.07
2023-05-08T05:16:13.540Z,7.11
2023-05-08T05:20:17.000Z,7.24
2023-05-08T05:24:22.021Z,7.31
2023-05-08T05:28:25.120Z,7.42
2023-05-08T05:32:32.286Z,7.55
2023-05-08T05:36:35.588Z,7.72
2023-05-08T05:40:40.603Z,7.92
2023-05-08T05:44:44.505Z,8.11
2023-05-08T05:48:47.763Z,8.26
2023-05-08T05:52:51.480Z,8.47
2023-05-08T05:56:56.873Z,8.64
2023-05-08T06:01:01.469Z,8.79
2023-05-08T06:05:07.010Z,9.05
2023-05-08T06:09:10.082Z,9.26
2023-05-08T06:13:14.514Z,9.51
2023-05-08T06:17:17.592Z,9.61
2023-05-08T06:21:22.004Z,9.81
2023-05-08T06:25:25.269Z,9.89
2023-05-08T06:29:29.695Z,9.90
2023-05-08T06:33:32.701Z,9.88
2023-05-08T06:37:36.041Z,9.94
2023-05-08T06:41:39.256Z,10.07
2023-05-08T06:45:44.678Z,10.18
2023-05-08T06:49:47.718Z,10.37
2023-05-08T06:53:50.743Z,10.55
2023-05-08T06:57:53.718Z,10.62
2023-05-08T07:01:58.696Z,10.77
2023-05-08T07:06:01.731Z,11.08
2023-05-08T07:10:05.976Z,11.41
2023-05-08T07:14:10.764Z,11.52
2023-05-08T07:18:15.175Z,11.65
2023-05-08T07:22:18.191Z,11.75
2023-05-08T07:26:21.557Z,11.82
2023-05-08T07:30:24.802Z,11.76
2023-05-08T07:34:29.704Z,11.68
2023-05-08T07:38:32.727Z,11.89
2023-05-08T07:42:40.614Z,11.95
2023-05-08T07:46:43.641Z,12.11
2023-05-08T07:50:50.170Z,12.32
2023-05-08T07:54:53.172Z,12.58
2023-05-08T07:58:56.256Z,12.62
2023-05-08T08:02:59.364Z,12.73
2023-05-08T08:07:03.918Z,13.11
2023-05-08T08:11:07.148Z,13.24
2023-05-08T08:15:11.261Z,13.23
2023-05-08T08:19:14.379Z,13.12
2023-05-08T08:23:18.855Z,12.96
2023-05-08T08:27:21.828Z,12.77
2023-05-08T08:31:24.911Z,12.83
2023-05-08T08:35:29.457Z,12.98
2023-05-08T08:39:35.553Z,13.04
2023-05-08T08:43:43.279Z,13.22
2023-05-08T08:47:48.767Z,13.34
2023-05-08T08:51:54.244Z,13.53
2023-05-08T08:56:02.228Z,13.68
2023-05-08T09:00:08.566Z,13.85
2023-05-08T09:04:11.986Z,13.96
2023-05-08T09:08:15.203Z,14.18
2023-05-08T09:12:19.667Z,14.27
2023-05-08T09:16:23.165Z,14.23
2023-05-08T09:20:26.861Z,14.26
2023-05-08T09:24:57.971Z,14.30
2023-05-08T09:29:16.518Z,14.19
2023-05-08T09:33:19.683Z,14.21
2023-05-08T09:37:22.955Z,14.13
2023-05-08T09:41:26.704Z,14.19
2023-05-08T09:45:32.871Z,14.27
2023-05-08T09:49:35.976Z,14.28
2023-05-08T09:53:39.201Z,14.35
2023-05-08T09:57:53.579Z,14.45
2023-05-08T10:01:58.203Z,14.54
2023-05-08T10:06:13.496Z,14.65
2023-05-08T10:10:26.217Z,14.66
2023-05-08T10:14:29.182Z,14.74
2023-05-08T10:18:36.604Z,14.96
2023-05-08T10:22:44.416Z,14.95
2023-05-08T10:27:07.126Z,15.04
2023-05-08T10:31:13.511Z,15.18
2023-05-08T10:35:18.178Z,15.16
2023-05-08T10:39:22.743Z,15.18
2023-05-08T10:43:26.080Z,15.29
2023-05-08T10:47:34.593Z,15.38
2023-05-08T10:51:45.394Z,15.47
2023-05-08T10:55:52.266Z,15.64
2023-05-08T10:59:55.297Z,15.81
2023-05-08T11:03:58.428Z,15.89
2023-05-08T11:08:02.979Z,15.90
2023-05-08T11:12:09.591Z,15.98
2023-05-08T11:16:12.729Z,16.06
2023-05-08T11:20:15.917Z,16.15
2023-05-08T11:24:20.625Z,16.21
2023-05-08T11:28:23.833Z,16.21
2023-05-08T11:32:58.013Z,16.34
2023-05-08T11:37:04.078Z,16.37
2023-05-08T11:41:11.273Z,16.35
2023-05-08T11:45:15.232Z,16.41
2023-05-08T11:49:24.660Z,16.48
2023-05-08T11:53:30.529Z,16.55
2023-05-08T11:57:35.131Z,16.55
2023-05-08T12:01:38.437Z,16.61
2023-05-08T12:05:42.006Z,16.65
2023-05-08T12:09:45.028Z,16.60
2023-05-08T12:13:51.909Z,16.61
2023-05-08T12:18:02.701Z,16.71
2023-05-08T12:22:05.826Z,16.77
2023-05-08T12:26:10.041Z,16.97
2023-05-08T12:30:17.152Z,17.03
2023-05-08T12:34:21.455Z,17.05
2023-05-08T12:38:27.395Z,17.17
2023-05-08T12:42:42.977Z,17.14
2023-05-08T12:46:52.807Z,17.18
2023-05-08T12:50:56.100Z,17.24
2023-05-08T12:54:59.221Z,17.31
2023-05-08T12:59:02.214Z,17.28
2023-05-08T13:03:07.756Z,17.38
2023-05-08T13:07:10.797Z,17.52
2023-05-08T13:11:13.889Z,17.61
2023-05-08T13:15:17.071Z,17.60
2023-05-08T13:19:21.502Z,17.61
2023-05-08T13:23:24.695Z,17.62
2023-05-08T13:27:27.776Z,17.52
2023-05-08T13:31:30.966Z,17.62
2023-05-08T13:35:36.210Z,17.74
2023-05-08T13:39:39.204Z,17.66
2023-05-08T13:43:42.512Z,17.57
2023-05-08T13:47:46.508Z,17.55
2023-05-08T13:51:56.472Z,17.54
2023-05-08T13:56:00.024Z,17.59
2023-05-08T14:00:04.404Z,17.61
2023-05-08T14:04:10.629Z,17.64
2023-05-08T14:08:15.238Z,17.59
2023-05-08T14:12:18.263Z,17.58
2023-05-08T14:16:21.508Z,17.59
2023-05-08T14:20:24.526Z,17.62
2023-05-08T14:24:29.039Z,17.70
2023-05-08T14:28:32.064Z,17.73
2023-05-08T14:32:35.455Z,17.76
2023-05-08T14:36:38.581Z,17.77
2023-05-08T14:40:43.023Z,17.73
2023-05-08T14:44:46.089Z,17.72
2023-05-08T14:48:49.157Z,17.73
2023-05-08T14:52:52.187Z,17.69
2023-05-08T14:56:56.692Z,17.72
2023-05-08T15:00:59.741Z,17.65
2023-05-08T15:05:07.961Z,17.62
2023-05-08T15:09:11.427Z,17.61
2023-05-08T15:13:15.918Z,17.61
2023-05-08T15:17:19.102Z,17.60
2023-05-08T15:21:26.195Z,17.57
2023-05-08T15:25:29.224Z,17.57
2023-05-08T15:29:33.791Z,17.53
2023-05-08T15:33:36.961Z,17.48
2023-05-08T15:37:40.054Z,17.48
2023-05-08T15:41:43.043Z,17.50
2023-05-08T15:45:47.512Z,17.51
2023-05-08T15:49:50.488Z,17.51
2023-05-08T15:53:53.624Z,17.48
2023-05-08T15:57:56.613Z,17.43
2023-05-08T16:02:01.063Z,17.35
2023-05-08T16:06:04.248Z,17.30
2023-05-08T16:10:08.749Z,17.29
2023-05-08T16:14:11.740Z,17.26
2023-05-08T16:18:16.384Z,17.31
2023-05-08T16:22:19.361Z,17.35
2023-05-08T16:26:22.715Z,17.32
2023-05-08T16:30:25.705Z,17.28
2023-05-08T16:34:30.435Z,17.26
2023-05-08T16:38:33.430Z,17.19
2023-05-08T16:42:37.103Z,17.18
2023-05-08T16:46:40.140Z,17.10
2023-05-08T16:50:44.623Z,16.97
2023-05-08T16:54:47.619Z,16.90
2023-05-08T16:58:50.718Z,16.86
2023-05-08T17:02:53.806Z,16.79
2023-05-08T17:07:00.000Z,16.72
2023-05-08T17:11:03.279Z,16.62
2023-05-08T17:15:07.472Z,16.58
2023-05-08T17:19:10.607Z,16.53
2023-05-08T17:23:15.013Z,16.46
2023-05-08T17:27:18.781Z,16.37
2023-05-08T17:31:21.849Z,16.27
2023-05-08T17:35:25.352Z,16.22
2023-05-08T17:39:29.914Z,16.12
2023-05-08T17:43:32.889Z,16.05
2023-05-08T17:47:37.631Z,15.94
2023-05-08T17:51:41.202Z,15.84
2023-05-08T17:55:45.625Z,15.75
2023-05-08T17:59:48.605Z,15.65
2023-05-08T18:03:54.000Z,15.56
2023-05-08T18:07:57.157Z,15.48
2023-05-08T18:12:02.635Z,15.34
2023-05-08T18:16:05.819Z,15.20
2023-05-08T18:20:10.117Z,15.09
2023-05-08T18:24:13.099Z,14.99
2023-05-08T18:28:17.514Z,14.92
2023-05-08T18:32:20.512Z,14.80
2023-05-08T18:36:23.835Z,14.72
2023-05-08T18:40:26.850Z,14.63
2023-05-08T18:44:31.225Z,14.52
2023-05-08T18:48:34.172Z,14.40
2023-05-08T18:52:37.179Z,14.30
2023-05-08T18:56:40.214Z,14.21
2023-05-08T19:00:44.733Z,14.16
2023-05-08T19:04:47.736Z,14.06
2023-05-08T19:08:52.169Z,13.95
2023-05-08T19:12:55.367Z,13.89
2023-05-08T19:16:59.909Z,13.82
2023-05-08T19:21:03.116Z,13.77
2023-05-08T19:25:07.037Z,13.69
2023-05-08T19:29:10.010Z,13.59
2023-05-08T19:33:14.572Z,13.49
2023-05-08T19:37:17.802Z,13.41
2023-05-08T19:41:21.039Z,13.35
2023-05-08T19:45:24.060Z,13.32
2023-05-08T19:49:28.594Z,13.23
2023-05-08T19:53:31.574Z,13.14
2023-05-08T19:57:34.644Z,13.04
2023-05-08T20:01:37.767Z,12.97
2023-05-08T20:05:42.228Z,12.92
2023-05-08T20:09:45.462Z,12.83
2023-05-08T20:13:48.509Z,12.67
2023-05-08T20:17:51.551Z,12.59
2023-05-08T20:21:56.261Z,12.49
2023-05-08T20:25:59.297Z,12.44
2023-05-08T20:30:02.430Z,12.35
2023-05-08T20:34:05.428Z,12.27
2023-05-08T20:38:10.066Z,12.24
2023-05-08T20:42:13.127Z,12.15
2023-05-08T20:46:16.408Z,12.09
2023-05-08T20:50:19.417Z,12.02
2023-05-08T20:54:23.859Z,11.97
2023-05-08T20:58:26.924Z,11.87
2023-05-08T21:02:30.203Z,11.83
2023-05-08T21:06:33.207Z,11.73
2023-05-08T21:10:37.694Z,11.67
2023-05-08T21:14:40.733Z,11.63
2023-05-08T21:18:43.791Z,11.56
2023-05-08T21:22:47.136Z,11.46
2023-05-08T21:26:52.181Z,11.37
2023-05-08T21:30:55.194Z,11.29
2023-05-08T21:34:58.247Z,11.28
2023-05-08T21:39:01.405Z,11.26
2023-05-08T21:43:05.910Z,11.16
2023-05-08T21:47:08.926Z,11.11
2023-05-08T21:51:12.066Z,11.05
2023-05-08T21:55:15.212Z,11.01
2023-05-08T21:59:20.309Z,10.95
2023-05-08T22:03:23.416Z,10.90
2023-05-08T22:07:27.073Z,10.80
2023-05-08T22:11:31.537Z,10.79
2023-05-08T22:15:36.233Z,10.73
2023-05-08T22:19:39.524Z,10.66
2023-05-08T22:23:42.755Z,10.59
2023-05-08T22:27:46.444Z,10.54
2023-05-08T22:31:51.030Z,10.47
2023-05-08T22:35:54.010Z,10.35
2023-05-08T22:39:57.291Z,10.31
2023-05-08T22:44:00.650Z,10.29
2023-05-08T22:48:05.511Z,10.25
2023-05-08T22:52:09.137Z,10.21
2023-05-08T22:56:12.430Z,10.15
2023-05-08T23:00:16.487Z,10.10
2023-05-08T23:04:21.591Z,10.05
2023-05-08T23:08:24.678Z,10.02
2023-05-08T23:12:27.726Z,10.00
2023-05-08T23:16:30.914Z,9.95
2023-05-08T23:20:35.489Z,9.89
2023-05-08T23:24:38.868Z,9.81
2023-05-08T23:28:41.911Z,9.75
2023-05-08T23:32:44.995Z,9.71
2023-05-08T23:36:50.845Z,9.64
2023-05-08T23:40:54.017Z,9.59
2023-05-08T23:44:57.255Z,9.57
2023-05-08T23:49:00.345Z,9.54
2023-05-08T23:53:04.854Z,9.54
2023-05-08T23:57:07.887Z,9.43
